createdAt,value
2023-04-25T00:06:45.767Z,66.26
2023-04-25T00:17:12.405Z,66.20
2023-04-25T00:27:38.339Z,65.88
2023-04-25T00:38:04.377Z,66.01
2023-04-25T00:48:30.013Z,66.15
2023-04-25T00:58:57.726Z,66.36
2023-04-25T01:09:24.349Z,66.09
2023-04-25T01:19:50.516Z,64.48
2023-04-25T01:30:17.222Z,63.44
2023-04-25T01:40:46.907Z,63.49
2023-04-25T01:51:13.452Z,63.68
2023-04-25T02:01:39.299Z,63.95
2023-04-25T02:12:05.827Z,63.85
2023-04-25T02:22:31.996Z,63.92
2023-04-25T02:32:57.938Z,64.04
2023-04-25T02:43:32.240Z,64.00
2023-04-25T02:53:58.033Z,64.09
2023-04-25T03:04:24.961Z,64.17
2023-04-25T03:14:50.904Z,64.11
2023-04-25T03:25:17.204Z,64.05
2023-04-25T03:35:43.709Z,63.68
2023-04-25T03:46:09.796Z,63.59
2023-04-25T03:56:35.994Z,63.69
2023-04-25T04:07:02.245Z,63.87
2023-04-25T04:17:28.605Z,63.62
2023-04-25T04:27:55.816Z,63.44
2023-04-25T04:38:22.813Z,63.48
2023-04-25T04:48:48.308Z,63.61
2023-04-25T04:59:13.947Z,63.39
2023-04-25T05:09:39.863Z,63.31
2023-04-25T05:20:08.233Z,63.33
2023-04-25T05:30:34.158Z,63.13
2023-04-25T05:41:01.084Z,62.24
2023-04-25T05:51:27.134Z,61.71
2023-04-25T06:01:53.237Z,61.11
2023-04-25T06:12:19.022Z,60.60
2023-04-25T06:22:45.037Z,60.42
2023-04-25T06:33:11.376Z,60.65
2023-04-25T06:43:37.515Z,60.42
2023-04-25T06:54:05.239Z,60.52
2023-04-25T07:04:31.751Z,59.99
2023-04-25T07:14:57.595Z,60.14
2023-04-25T07:25:23.052Z,59.67
2023-04-25T07:35:49.141Z,59.41
2023-04-25T07:46:15.247Z,59.37
2023-04-25T07:56:51.521Z,58.63
2023-04-25T08:07:18.399Z,58.01
2023-04-25T08:17:45.137Z,57.78
2023-04-25T08:28:10.794Z,57.37
2023-04-25T08:38:37.679Z,56.77
2023-04-25T08:49:05.009Z,55.31
2023-04-25T08:59:31.873Z,54.37
2023-04-25T09:09:57.670Z,54.20
2023-04-25T09:20:23.803Z,53.38
2023-04-25T09:30:49.814Z,53.61
2023-04-25T09:41:28.492Z,53.04
2023-04-25T09:51:59.774Z,52.50
2023-04-25T10:02:27.171Z,51.74
2023-04-25T10:12:53.578Z,51.27
2023-04-25T10:23:19.257Z,50.95
2023-04-25T10:33:47.001Z,50.66
2023-04-25T10:44:12.880Z,50.15
2023-04-25T10:54:42.131Z,50.02
2023-04-25T11:05:09.507Z,49.55
2023-04-25T11:15:35.040Z,49.37
2023-04-25T11:26:02.329Z,49.06
2023-04-25T11:36:28.786Z,48.43
2023-04-25T11:46:54.921Z,48.77
2023-04-25T11:57:23.751Z,48.72
2023-04-25T12:07:50.157Z,48.57
2023-04-25T12:18:16.349Z,48.39
2023-04-25T12:28:42.116Z,48.44
2023-04-25T12:39:08.317Z,48.55
2023-04-25T12:49:34.524Z,48.11
2023-04-25T13:00:00.526Z,47.99
2023-04-25T13:10:26.438Z,47.97
2023-04-25T13:20:51.967Z,48.13
2023-04-25T13:31:18.227Z,48.23
2023-04-25T13:41:44.208Z,48.55
2023-04-25T13:52:10.581Z,48.53
2023-04-25T14:02:36.281Z,48.25
2023-04-25T14:13:04.381Z,47.77
2023-04-25T14:23:30.526Z,47.21
2023-04-25T14:33:58.638Z,48.03
2023-04-25T14:44:25.293Z,47.69
2023-04-25T14:54:51.265Z,47.48
2023-04-25T15:05:17.362Z,47.65
2023-04-25T15:15:43.538Z,47.55
2023-04-25T15:26:09.411Z,47.85
2023-04-25T15:36:35.194Z,47.72
2023-04-25T15:47:01.639Z,47.85
2023-04-25T15:57:27.519Z,47.80
2023-04-25T16:07:54.024Z,47.62
2023-04-25T16:18:19.828Z,47.84
2023-04-25T16:28:45.748Z,48.02
2023-04-25T16:39:11.638Z,47.97
2023-04-25T16:49:39.267Z,48.23
2023-04-25T17:00:05.854Z,47.70
2023-04-25T17:10:32.254Z,47.78
2023-04-25T17:20:58.280Z,47.44
2023-04-25T17:31:25.495Z,47.60
2023-04-25T17:41:51.725Z,47.31
2023-04-25T17:52:17.501Z,47.61
2023-04-25T18:02:45.579Z,47.04
2023-04-25T18:13:11.330Z,47.44
2023-04-25T18:23:38.504Z,47.40
2023-04-25T18:34:04.484Z,47.34
2023-04-25T18:44:32.308Z,47.35
2023-04-25T18:54:56.804Z,47.62
2023-04-25T19:05:22.680Z,47.99
2023-04-25T19:15:48.805Z,47.87
2023-04-25T19:26:15.065Z,48.24
2023-04-25T19:36:42.376Z,48.55
2023-04-25T19:47:08.647Z,48.97
2023-04-25T19:57:34.555Z,49.26
2023-04-25T20:08:00.253Z,49.49
2023-04-25T20:18:26.651Z,50.14
2023-04-25T20:28:53.450Z,50.60
2023-04-25T20:39:20.002Z,51.03
2023-04-25T20:49:46.208Z,51.39
2023-04-25T21:00:21.002Z,51.73
2023-04-25T21:10:46.537Z,52.23
2023-04-25T21:21:13.117Z,52.72
2023-04-25T21:31:39.655Z,53.26
2023-04-25T21:42:09.048Z,52.90
2023-04-25T21:52:35.155Z,52.57
2023-04-25T22:03:01.762Z,53.86
2023-04-25T22:13:29.151Z,54.94
2023-04-25T22:23:56.706Z,55.58
2023-04-25T22:34:23.082Z,55.63
2023-04-25T22:44:49.027Z,56.55
2023-04-25T22:55:14.672Z,56.88
2023-04-25T23:05:40.709Z,57.52
2023-04-25T23:16:11.712Z,57.87
2023-04-25T23:26:37.556Z,57.79
2023-04-25T23:37:04.549Z,57.69
2023-04-25T23:47:30.377Z,57.62
2023-04-25T23:57:56.784Z,57.63
